Time;durP1;ratioP1;P1;durP2;ratioP2;P2;SDS_P1;SDS_P2;PMS_P1;PMS_P2;Temp;Humidity;BMP_temperature;BMP_pressure;BME280_temperature;BME280_humidity;BME280_pressure;Samples;Min_cycle;Max_cycle;Signal;HPM_P1;HPM_P2
2020/12/09 00:02:41;;;;;;;17.37;14.57;;;;;;;6.31;62.59;96722.94;8266872;28;20225;-80
2020/12/09 00:06:43;;;;;;;17.53;15.33;;;;;;;6.31;62.47;96706.66;8253203;28;20249;-80
2020/12/09 00:10:45;;;;;;;18.70;14.83;;;;;;;6.28;62.35;96717.91;8235714;28;20214;-80
2020/12/09 00:14:47;;;;;;;18.30;15.57;;;;;;;6.33;62.26;96707.44;8253479;28;20206;-80
2020/12/09 00:18:50;;;;;;;17.80;15.10;;;;;;;6.35;62.06;96716.72;8235062;28;20226;-80
2020/12/09 00:22:51;;;;;;;19.20;14.63;;;;;;;6.36;62.61;96722.69;8254761;28;20203;-81
2020/12/09 00:26:53;;;;;;;16.67;14.73;;;;;;;6.40;62.40;96722.50;8255772;28;20209;-81
2020/12/09 00:30:56;;;;;;;16.37;14.70;;;;;;;6.32;62.70;96726.31;8253803;28;20233;-81
2020/12/09 00:34:58;;;;;;;16.57;14.10;;;;;;;6.42;62.46;96712.13;8250495;28;20209;-80
2020/12/09 00:39:00;;;;;;;16.30;14.63;;;;;;;6.31;62.81;96704.94;8249859;28;20230;-80
2020/12/09 00:43:01;;;;;;;15.80;14.10;;;;;;;6.30;62.75;96700.69;8247456;28;20203;-79
2020/12/09 00:47:04;;;;;;;16.87;14.80;;;;;;;6.29;62.79;96713.63;8247072;28;20646;-80
2020/12/09 00:51:05;;;;;;;16.40;13.83;;;;;;;6.30;63.31;96720.41;8246224;28;20573;-80
2020/12/09 00:55:08;;;;;;;16.97;15.17;;;;;;;6.28;62.87;96727.38;8254864;28;20206;-80
2020/12/09 00:59:09;;;;;;;16.33;14.17;;;;;;;6.28;63.00;96729.94;8278719;28;20225;-80
2020/12/09 01:03:12;;;;;;;16.67;14.57;;;;;;;6.31;62.79;96738.34;8278698;28;20221;-80
2020/12/09 01:07:14;;;;;;;15.90;14.20;;;;;;;6.34;62.99;96743.38;8278381;28;20237;-80
2020/12/09 01:11:16;;;;;;;18.63;14.77;;;;;;;6.23;63.21;96758.47;8278750;28;20209;-80
2020/12/09 01:15:18;;;;;;;18.00;14.73;;;;;;;6.24;63.39;96762.69;8278905;28;20213;-80
2020/12/09 01:19:22;;;;;;;16.70;14.90;;;;;;;6.26;63.28;96769.44;8281224;28;20233;-80
2020/12/09 01:23:24;;;;;;;16.73;14.83;;;;;;;6.25;62.80;96779.78;8279526;28;20208;-80
2020/12/09 01:27:25;;;;;;;17.23;14.50;;;;;;;6.29;63.48;96783.88;8282713;28;20221;-79
2020/12/09 01:31:27;;;;;;;17.43;14.40;;;;;;;6.32;63.30;96770.03;8281657;28;20209;-79
2020/12/09 01:35:30;;;;;;;18.83;15.17;;;;;;;6.38;62.93;96772.34;8277451;28;20201;-80
2020/12/09 01:39:32;;;;;;;16.97;13.90;;;;;;;6.29;63.83;96763.31;8276360;28;20236;-80
2020/12/09 01:43:43;;;;;;;16.40;14.00;;;;;;;6.39;62.94;96774.00;8282052;28;20209;-80
2020/12/09 01:47:46;;;;;;;17.57;15.33;;;;;;;6.37;63.43;96778.38;8275275;28;20204;-79
2020/12/09 01:51:50;;;;;;;20.57;15.10;;;;;;;6.26;63.65;96771.16;8283018;28;20205;-80
2020/12/09 01:55:52;;;;;;;18.40;15.50;;;;;;;6.29;63.62;96768.44;8268227;28;20210;-79
2020/12/09 01:59:54;;;;;;;18.90;15.53;;;;;;;6.29;63.70;96772.75;8250131;28;20237;-79
2020/12/09 02:03:56;;;;;;;16.53;14.33;;;;;;;6.33;63.91;96787.97;8250241;28;20257;-79
2020/12/09 02:07:58;;;;;;;20.03;15.13;;;;;;;6.34;63.51;96792.22;8249309;28;20243;-79
2020/12/09 02:12:00;;;;;;;16.23;14.53;;;;;;;6.34;63.44;96805.06;8249922;28;20203;-79
2020/12/09 02:16:02;;;;;;;18.03;15.60;;;;;;;6.26;63.62;96815.72;8250143;28;20206;-80
2020/12/09 02:20:07;;;;;;;17.93;15.17;;;;;;;6.34;63.59;96823.06;8251170;28;20595;-80
2020/12/09 02:24:10;;;;;;;18.17;16.00;;;;;;;6.28;63.42;96822.50;8252275;28;20614;-80
2020/12/09 02:28:12;;;;;;;19.17;15.07;;;;;;;6.21;64.03;96825.38;8252033;28;20214;-79
2020/12/09 02:32:14;;;;;;;17.17;15.47;;;;;;;5.98;64.43;96823.81;8249202;28;20210;-79
2020/12/09 02:36:15;;;;;;;18.83;15.83;;;;;;;6.11;63.91;96833.53;8244811;28;20209;-79
2020/12/09 02:40:18;;;;;;;16.63;15.03;;;;;;;6.12;64.52;96833.47;8243308;28;20233;-79
2020/12/09 02:44:20;;;;;;;19.73;16.47;;;;;;;6.22;64.54;96836.47;8243484;28;20203;-79
2020/12/09 02:48:21;;;;;;;18.23;16.37;;;;;;;6.24;64.46;96847.53;8244561;28;20261;-79
2020/12/09 02:52:23;;;;;;;18.33;16.30;;;;;;;6.31;64.26;96843.78;8244667;28;20206;-79
2020/12/09 02:56:25;;;;;;;18.93;15.50;;;;;;;6.26;64.27;96838.00;8263564;28;20202;-79
2020/12/09 03:00:27;;;;;;;17.50;15.47;;;;;;;6.20;64.40;96836.53;8275560;28;20210;-79
2020/12/09 03:04:29;;;;;;;17.23;15.30;;;;;;;6.13;64.46;96842.88;8280892;28;20222;-79
2020/12/09 03:08:30;;;;;;;18.23;15.63;;;;;;;6.08;64.57;96831.94;8279117;28;20241;-80
2020/12/09 03:12:33;;;;;;;18.07;16.20;;;;;;;5.97;65.16;96834.16;8277441;28;20567;-80
2020/12/09 03:16:35;;;;;;;18.30;16.40;;;;;;;5.94;65.63;96842.81;8277674;28;20205;-79
2020/12/09 03:20:37;;;;;;;19.17;16.30;;;;;;;5.89;65.57;96842.19;8278019;28;20213;-79
2020/12/09 03:24:38;;;;;;;17.70;15.90;;;;;;;5.99;65.25;96856.31;8277499;28;20234;-79
2020/12/09 03:28:41;;;;;;;17.43;15.53;;;;;;;6.15;64.76;96855.63;8278870;28;20197;-79
2020/12/09 03:32:43;;;;;;;17.93;16.03;;;;;;;5.97;64.81;96855.53;8276942;28;20210;-79
2020/12/09 03:36:45;;;;;;;17.30;15.60;;;;;;;6.11;64.51;96872.09;8273553;28;20233;-80
2020/12/09 03:40:46;;;;;;;17.90;16.13;;;;;;;6.03;64.85;96869.88;8273205;28;20668;-79
2020/12/09 03:44:50;;;;;;;18.83;16.93;;;;;;;6.03;64.95;96865.56;8273697;28;20592;-79
2020/12/09 03:48:52;;;;;;;18.17;16.23;;;;;;;5.90;65.09;96872.09;8274687;28;20210;-80
2020/12/09 03:52:54;;;;;;;16.90;15.17;;;;;;;6.08;64.44;96875.66;8277477;28;20563;-80
2020/12/09 03:56:56;;;;;;;18.10;16.30;;;;;;;5.99;64.45;96863.19;8278037;28;20225;-79
2020/12/09 04:00:59;;;;;;;18.00;16.13;;;;;;;6.11;63.79;96866.97;8276368;28;20213;-79
2020/12/09 04:05:00;;;;;;;19.20;16.90;;;;;;;5.95;64.45;96872.78;8271303;28;20605;-79
2020/12/09 04:09:03;;;;;;;21.03;18.03;;;;;;;5.81;64.58;96875.91;8276006;28;20201;-79
2020/12/09 04:13:04;;;;;;;18.70;16.80;;;;;;;5.92;64.64;96880.59;8278331;28;20202;-79
2020/12/09 04:17:07;;;;;;;18.93;16.93;;;;;;;6.06;64.31;96875.72;8277563;28;20245;-79
2020/12/09 04:21:09;;;;;;;18.27;16.40;;;;;;;6.11;64.26;96875.53;8278468;28;20204;-80
2020/12/09 04:25:10;;;;;;;18.70;16.73;;;;;;;6.15;64.46;96879.63;8280681;28;20209;-80
2020/12/09 04:29:12;;;;;;;20.20;17.47;;;;;;;6.18;64.27;96886.34;8276649;28;20633;-79
2020/12/09 04:33:14;;;;;;;20.70;18.60;;;;;;;6.08;64.22;96880.78;8275571;28;20202;-79
2020/12/09 04:37:17;;;;;;;20.30;18.20;;;;;;;6.07;64.21;96885.09;8274209;28;20225;-79
2020/12/09 04:41:19;;;;;;;19.67;17.60;;;;;;;6.07;64.41;96867.13;8274086;28;20213;-79
2020/12/09 04:45:21;;;;;;;19.20;17.20;;;;;;;6.10;64.63;96852.44;8274687;28;20598;-79
2020/12/09 04:49:24;;;;;;;19.80;17.67;;;;;;;6.14;64.30;96861.69;8272766;28;20568;-79
2020/12/09 04:53:27;;;;;;;19.53;17.47;;;;;;;6.12;64.24;96855.78;8272048;28;20202;-79
2020/12/09 04:57:43;;;;;;;20.47;18.37;;;;;;;6.01;64.32;96863.97;8275237;28;20229;-79
2020/12/09 05:02:01;;;;;;;20.10;17.97;;;;;;;6.10;64.42;96865.31;8267434;28;20194;-79
2020/12/09 05:06:03;;;;;;;20.07;18.07;;;;;;;6.11;64.37;96866.97;8276631;28;20238;-80
2020/12/09 05:10:08;;;;;;;19.20;17.20;;;;;;;6.17;64.65;96864.09;8279233;28;20213;-80
2020/12/09 05:14:12;;;;;;;19.83;17.73;;;;;;;6.17;64.13;96872.69;8277507;28;20560;-80
2020/12/09 05:18:16;;;;;;;19.50;17.60;;;;;;;6.28;64.26;96872.19;8275505;28;20236;-80
2020/12/09 05:22:21;;;;;;;20.70;18.53;;;;;;;6.17;64.69;96882.97;8278280;28;20209;-80
2020/12/09 05:26:27;;;;;;;19.70;17.70;;;;;;;6.28;64.26;96876.50;8278401;28;20245;-79
2020/12/09 05:30:42;;;;;;;20.60;18.50;;;;;;;6.19;64.27;96881.16;8277699;28;20244;-80
2020/12/09 05:34:44;;;;;;;20.33;18.20;;;;;;;6.28;64.06;96900.47;8279962;28;20202;-80
2020/12/09 05:39:02;;;;;;;21.20;18.93;;;;;;;6.20;63.57;96910.25;8280618;28;20229;-79
2020/12/09 05:43:04;;;;;;;26.53;23.00;;;;;;;6.23;64.21;96916.09;8279095;28;20198;-80
2020/12/09 05:47:06;;;;;;;22.70;19.40;;;;;;;6.24;64.16;96922.06;8279965;28;20205;-80
2020/12/09 05:51:09;;;;;;;20.80;18.70;;;;;;;6.26;64.01;96933.13;8277151;28;20208;-80
2020/12/09 05:55:11;;;;;;;19.93;17.93;;;;;;;6.31;64.40;96936.34;8278645;28;20280;-80
2020/12/09 05:59:13;;;;;;;19.60;17.60;;;;;;;6.31;64.86;96938.09;8302737;28;20225;-80
2020/12/09 06:03:18;;;;;;;23.27;19.90;;;;;;;6.32;64.56;96932.03;8302689;28;20204;-79
2020/12/09 06:07:21;;;;;;;21.70;19.37;;;;;;;6.31;64.54;96940.66;8303408;28;20240;-80
2020/12/09 06:11:25;;;;;;;22.57;20.17;;;;;;;6.26;64.88;96958.84;8283497;28;20194;-79
2020/12/09 06:15:28;;;;;;;21.00;18.57;;;;;;;6.31;64.60;96966.38;8279616;28;20206;-80
2020/12/09 06:19:30;;;;;;;19.60;17.60;;;;;;;6.37;64.63;96964.34;8288172;28;20222;-79
2020/12/09 06:23:32;;;;;;;19.53;17.53;;;;;;;6.38;64.66;96967.78;8287447;28;20206;-80
2020/12/09 06:27:36;;;;;;;22.27;19.53;;;;;;;6.27;64.31;96975.94;8281338;28;20275;-80
2020/12/09 06:31:38;;;;;;;20.23;18.23;;;;;;;6.22;64.51;96975.31;8286882;28;20534;-80
2020/12/09 06:35:41;;;;;;;20.63;18.43;;;;;;;6.21;64.64;96976.22;8281825;28;20213;-81
2020/12/09 06:40:06;;;;;;;20.70;18.53;;;;;;;6.20;64.38;96988.22;8274577;28;20221;-81
2020/12/09 06:44:11;;;;;;;20.00;18.00;;;;;;;6.16;64.38;96985.84;8281798;28;20190;-81
2020/12/09 06:48:14;;;;;;;19.60;17.60;;;;;;;6.33;63.93;97000.56;8282657;28;20202;-81
2020/12/09 06:52:43;;;;;;;20.10;18.10;;;;;;;6.31;63.66;97005.78;8281332;28;20313;-81
2020/12/09 06:56:45;;;;;;;19.93;17.80;;;;;;;6.23;63.60;97010.41;8272399;28;20203;-81
2020/12/09 07:00:58;;;;;;;20.90;18.83;;;;;;;6.33;63.96;97019.41;8294670;28;20225;-81
2020/12/09 07:05:07;;;;;;;21.83;19.53;;;;;;;6.31;63.86;97008.34;8299734;28;20232;-82
2020/12/09 07:09:08;;;;;;;20.97;18.70;;;;;;;6.32;63.88;97015.16;8305850;28;20194;-81
2020/12/09 07:13:11;;;;;;;21.33;19.23;;;;;;;6.32;63.85;97016.88;8292714;28;20202;-81
2020/12/09 07:17:15;;;;;;;20.70;18.60;;;;;;;6.30;64.01;97009.22;8279168;28;20236;-81
2020/12/09 07:21:17;;;;;;;21.47;19.17;;;;;;;6.25;64.45;97011.19;8280550;28;20213;-81
2020/12/09 07:25:18;;;;;;;20.60;18.47;;;;;;;6.17;64.21;97002.94;8282739;28;20205;-80
2020/12/09 07:29:21;;;;;;;21.87;19.70;;;;;;;6.26;64.15;97007.69;8283331;28;20201;-81
2020/12/09 07:33:23;;;;;;;22.43;20.00;;;;;;;6.18;64.18;97014.91;8283421;28;20206;-81
2020/12/09 07:37:27;;;;;;;24.07;18.97;;;;;;;6.22;64.45;97019.84;8283836;28;20553;-81
2020/12/09 07:41:30;;;;;;;22.47;18.87;;;;;;;6.23;64.35;97029.25;8265737;28;20198;-81
2020/12/09 07:45:34;;;;;;;21.20;19.00;;;;;;;6.23;64.18;97036.13;8292048;28;20198;-81
2020/12/09 07:49:37;;;;;;;21.67;19.37;;;;;;;6.31;63.86;97036.63;8284350;28;20210;-80
2020/12/09 07:53:38;;;;;;;21.70;19.17;;;;;;;6.08;64.97;97040.16;8284905;28;20202;-80
2020/12/09 07:57:41;;;;;;;21.23;18.93;;;;;;;6.24;64.36;97040.34;8287948;28;20237;-81
2020/12/09 08:01:42;;;;;;;21.80;18.83;;;;;;;6.30;64.33;97052.94;8289362;28;20242;-80
2020/12/09 08:05:45;;;;;;;23.20;20.70;;;;;;;6.26;64.42;97052.25;8285638;28;20252;-81
2020/12/09 08:10:08;;;;;;;22.63;20.47;;;;;;;6.28;64.06;97062.47;8283914;28;20574;-81
2020/12/09 08:14:10;;;;;;;24.47;21.47;;;;;;;6.25;64.24;97055.72;8285775;28;20204;-81
2020/12/09 08:18:21;;;;;;;25.23;21.93;;;;;;;6.35;63.79;97052.78;8286848;28;20221;-81
2020/12/09 08:22:24;;;;;;;23.87;21.37;;;;;;;6.37;63.17;97046.66;8287539;28;20194;-82
2020/12/09 08:26:30;;;;;;;23.60;21.13;;;;;;;6.35;63.65;97033.03;8289843;28;20206;-81
2020/12/09 08:30:32;;;;;;;23.80;21.27;;;;;;;6.42;63.37;97034.44;8275116;28;20206;-82
2020/12/09 08:34:37;;;;;;;24.80;22.20;;;;;;;6.32;63.38;97038.31;8275197;28;20225;-82
2020/12/09 08:38:41;;;;;;;24.67;21.00;;;;;;;6.24;63.68;97045.50;8275004;28;20241;-80
2020/12/09 08:42:56;;;;;;;23.63;21.13;;;;;;;6.32;63.64;97038.31;8278267;28;20217;-80
2020/12/09 08:46:57;;;;;;;25.00;21.67;;;;;;;6.25;63.40;97049.75;8278475;28;20209;-80
2020/12/09 08:51:00;;;;;;;24.37;21.23;;;;;;;6.29;63.76;97055.59;8280912;28;20198;-80
2020/12/09 08:55:03;;;;;;;25.93;22.87;;;;;;;6.29;63.61;97053.03;8278530;28;20202;-80
2020/12/09 08:59:05;;;;;;;24.37;21.87;;;;;;;6.36;63.74;97057.84;8284670;28;20224;-80
2020/12/09 09:03:07;;;;;;;24.17;21.50;;;;;;;6.38;63.41;97056.06;8312877;28;20232;-81
2020/12/09 09:07:09;;;;;;;24.43;22.03;;;;;;;6.32;63.93;97056.31;8314546;28;20258;-80
2020/12/09 09:11:12;;;;;;;23.97;21.40;;;;;;;6.38;64.29;97053.47;8313099;28;20209;-80
2020/12/09 09:15:13;;;;;;;23.40;20.90;;;;;;;6.44;64.04;97066.06;8314804;28;20204;-80
2020/12/09 09:19:15;;;;;;;23.60;21.20;;;;;;;6.44;63.39;97071.22;8316338;28;20237;-80
2020/12/09 09:23:17;;;;;;;24.00;21.50;;;;;;;6.38;63.18;97066.34;8317329;28;20213;-81
2020/12/09 09:27:20;;;;;;;21.83;17.10;;;;;;;9.44;82.13;97081.88;8312866;28;20212;-79
2020/12/09 09:31:21;;;;;;;21.07;18.07;;;;;;;10.07;63.34;97064.63;8312815;28;20637;-80
2020/12/09 09:35:23;;;;;;;24.00;21.50;;;;;;;8.50;57.70;97078.16;8317472;28;20355;-80
2020/12/09 09:39:25;;;;;;;23.53;21.13;;;;;;;7.85;59.56;97089.00;8318385;28;20229;-80
2020/12/09 09:43:27;;;;;;;24.53;21.93;;;;;;;7.46;60.41;97084.78;8318788;28;20264;-81
2020/12/09 09:47:29;;;;;;;24.33;21.77;;;;;;;7.29;60.73;97085.56;8318753;28;20208;-80
2020/12/09 09:51:31;;;;;;;24.10;21.67;;;;;;;7.03;61.64;97084.16;8318885;28;20205;-80
2020/12/09 09:55:33;;;;;;;24.30;21.77;;;;;;;7.05;61.68;97088.31;8305818;28;20198;-81
2020/12/09 09:59:36;;;;;;;23.60;21.20;;;;;;;6.80;62.56;97080.84;8284954;28;20233;-80
2020/12/09 10:03:38;;;;;;;24.63;22.23;;;;;;;6.80;62.55;97078.28;8289170;28;20213;-80
2020/12/09 10:07:39;;;;;;;25.37;21.63;;;;;;;6.68;62.30;97083.94;8285062;28;20234;-80
2020/12/09 10:11:42;;;;;;;24.80;22.17;;;;;;;6.77;62.79;97075.81;8282058;28;20292;-79
2020/12/09 10:15:44;;;;;;;24.90;22.20;;;;;;;6.84;62.75;97078.97;8280595;28;20202;-79
2020/12/09 10:19:46;;;;;;;26.00;23.17;;;;;;;6.66;63.07;97078.00;8281291;28;20225;-78
2020/12/09 10:23:49;;;;;;;25.50;22.90;;;;;;;6.63;63.36;97079.00;8279242;28;20213;-78
2020/12/09 10:27:51;;;;;;;32.23;26.40;;;;;;;6.37;63.86;97085.22;8279747;28;20213;-78
2020/12/09 10:31:53;;;;;;;30.77;27.47;;;;;;;6.37;63.18;97085.22;8277547;28;20206;-78
2020/12/09 10:35:55;;;;;;;31.43;28.17;;;;;;;6.37;63.29;97087.78;8277839;28;20209;-77
2020/12/09 10:39:57;;;;;;;31.20;27.13;;;;;;;6.33;62.95;97081.13;8277111;28;20237;-78
2020/12/09 10:43:59;;;;;;;30.43;27.17;;;;;;;6.37;63.65;97079.25;8277157;28;20202;-78
2020/12/09 10:48:01;;;;;;;30.00;26.77;;;;;;;6.14;63.74;97080.19;8279431;28;20216;-77
2020/12/09 10:52:03;;;;;;;29.97;26.80;;;;;;;6.20;63.31;97073.06;8279417;28;20236;-77
2020/12/09 10:56:05;;;;;;;30.50;27.23;;;;;;;6.23;63.58;97070.38;8241753;28;20570;-78
2020/12/09 11:00:07;;;;;;;29.73;26.63;;;;;;;6.26;63.66;97075.41;8242046;28;20229;-78
2020/12/09 11:04:10;;;;;;;33.17;27.43;;;;;;;6.40;63.49;97066.28;8304510;28;20229;-78
2020/12/09 11:08:12;;;;;;;36.27;30.20;;;;;;;6.03;63.77;97066.03;8305431;28;20241;-78
2020/12/09 11:12:14;;;;;;;29.90;26.83;;;;;;;6.09;64.27;97064.13;8307233;28;20212;-79
2020/12/09 11:16:16;;;;;;;29.47;26.37;;;;;;;6.18;63.84;97063.75;8309776;28;20208;-78
2020/12/09 11:20:18;;;;;;;30.23;27.03;;;;;;;6.24;64.13;97055.78;8304078;28;20260;-78
2020/12/09 11:24:20;;;;;;;29.27;26.13;;;;;;;6.31;63.82;97061.50;8304273;28;20676;-78
2020/12/09 11:28:22;;;;;;;28.77;25.60;;;;;;;6.31;63.79;97058.94;8294013;28;20255;-78
2020/12/09 11:32:32;;;;;;;29.23;26.13;;;;;;;6.54;63.73;97055.41;8273843;28;20209;-78
2020/12/09 11:36:35;;;;;;;29.53;25.77;;;;;;;6.46;63.88;97061.69;8272084;28;20233;-78
2020/12/09 11:40:37;;;;;;;28.43;25.43;;;;;;;6.31;64.22;97058.94;8272780;28;20578;-78
2020/12/09 11:44:38;;;;;;;29.50;26.30;;;;;;;6.49;63.76;97055.56;8272835;28;20675;-79
2020/12/09 11:48:40;;;;;;;29.03;25.83;;;;;;;6.51;63.37;97061.53;8272335;28;20202;-78
2020/12/09 11:52:43;;;;;;;27.37;24.57;;;;;;;6.51;63.36;97056.38;8271858;28;20272;-78
2020/12/09 11:56:45;;;;;;;28.37;25.23;;;;;;;6.39;63.37;97055.13;8272393;28;20210;-78
2020/12/09 12:00:47;;;;;;;28.60;25.50;;;;;;;6.52;63.15;97052.88;8271633;28;20222;-78
2020/12/09 12:04:51;;;;;;;27.47;24.57;;;;;;;6.55;63.18;97052.75;8270813;28;20310;-78
2020/12/09 12:08:55;;;;;;;27.80;24.80;;;;;;;6.61;63.74;97055.06;8271975;28;20700;-78
2020/12/09 12:12:57;;;;;;;28.03;24.47;;;;;;;6.56;63.49;97053.59;8271302;28;20208;-78
2020/12/09 12:16:58;;;;;;;29.90;26.70;;;;;;;6.45;63.70;97043.75;8270759;28;20638;-78
2020/12/09 12:21:00;;;;;;;29.10;25.97;;;;;;;6.54;64.02;97040.78;8271585;28;20229;-78
2020/12/09 12:25:03;;;;;;;29.07;25.93;;;;;;;6.33;64.46;97037.41;8272099;28;20202;-78
2020/12/09 12:29:04;;;;;;;28.10;25.10;;;;;;;6.43;64.93;97038.66;8269842;28;20206;-78
2020/12/09 12:33:06;;;;;;;26.33;23.37;;;;;;;6.62;64.37;97041.28;8273096;28;20213;-79
2020/12/09 12:37:08;;;;;;;27.63;24.73;;;;;;;6.50;64.52;97041.81;8270342;28;20206;-78
2020/12/09 12:41:10;;;;;;;27.30;24.43;;;;;;;6.53;64.15;97046.84;8270366;28;20590;-77
2020/12/09 12:45:13;;;;;;;27.03;24.13;;;;;;;6.42;64.21;97043.91;8269425;28;20216;-78
2020/12/09 12:49:14;;;;;;;26.93;24.03;;;;;;;6.56;63.74;97043.31;8268779;28;20209;-79
2020/12/09 12:53:16;;;;;;;25.63;22.97;;;;;;;6.48;64.12;97047.94;8268764;28;20205;-79
2020/12/09 12:57:19;;;;;;;27.63;24.73;;;;;;;6.34;64.24;97051.09;8268903;28;20205;-79
2020/12/09 13:01:20;;;;;;;26.17;23.37;;;;;;;6.40;64.08;97045.72;8268439;28;20230;-78
2020/12/09 13:05:22;;;;;;;24.13;21.57;;;;;;;6.53;63.92;97040.84;8269563;28;20208;-79
2020/12/09 13:09:24;;;;;;;23.90;21.40;;;;;;;6.53;63.71;97041.72;8268500;28;20657;-78
2020/12/09 13:13:26;;;;;;;24.10;21.60;;;;;;;6.52;63.95;97044.34;8268671;28;20653;-78
2020/12/09 13:17:28;;;;;;;25.13;22.43;;;;;;;6.54;64.08;97043.38;8268518;28;20221;-78
2020/12/09 13:21:30;;;;;;;25.23;22.63;;;;;;;6.39;63.87;97039.69;8268465;28;20262;-78
2020/12/09 13:25:31;;;;;;;24.50;22.00;;;;;;;6.34;63.91;97039.09;8268400;28;20240;-78
2020/12/09 13:29:34;;;;;;;25.40;22.70;;;;;;;6.21;63.81;97040.50;8268237;28;20205;-78
2020/12/09 13:33:36;;;;;;;25.00;22.53;;;;;;;6.23;63.96;97034.38;8268233;28;20209;-78
2020/12/09 13:37:37;;;;;;;24.93;22.43;;;;;;;6.23;63.40;97049.81;8269803;28;20212;-78
2020/12/09 13:41:39;;;;;;;24.43;22.10;;;;;;;6.13;63.72;97057.94;8275144;28;20236;-78
2020/12/09 13:45:42;;;;;;;22.10;17.13;;;;;;;6.80;79.23;97056.84;8276796;28;20202;-78
2020/12/09 13:49:44;;;;;;;26.23;23.43;;;;;;;7.59;63.12;97054.13;8268995;28;20202;-78
2020/12/09 13:53:46;;;;;;;24.70;22.20;;;;;;;6.89;61.50;97058.16;8275577;28;20735;-78
2020/12/09 13:58:00;;;;;;;24.67;22.17;;;;;;;6.62;62.35;97061.03;8276337;28;20194;-79
2020/12/09 14:02:03;;;;;;;26.10;23.40;;;;;;;6.45;62.08;97059.19;8300517;28;20198;-78
2020/12/09 14:06:05;;;;;;;24.33;21.87;;;;;;;6.39;62.58;97059.44;8298933;28;20241;-79
2020/12/09 14:10:06;;;;;;;26.33;23.73;;;;;;;6.10;62.37;97070.94;8303605;28;20205;-79
2020/12/09 14:14:08;;;;;;;24.20;21.70;;;;;;;6.19;62.80;97068.84;8307126;28;20201;-78
2020/12/09 14:18:11;;;;;;;25.43;22.83;;;;;;;6.19;62.65;97075.72;8292449;28;20201;-79
2020/12/09 14:22:12;;;;;;;25.17;22.57;;;;;;;6.07;62.31;97085.59;8275359;28;20208;-79
2020/12/09 14:26:17;;;;;;;24.20;21.63;;;;;;;6.21;62.17;97095.31;8273832;28;20205;-78
2020/12/09 14:30:19;;;;;;;22.13;20.03;;;;;;;6.05;62.09;97084.81;8273101;28;20205;-77
2020/12/09 14:34:22;;;;;;;23.10;20.80;;;;;;;5.95;62.73;97091.22;8274208;28;20213;-79
2020/12/09 14:38:24;;;;;;;22.97;20.70;;;;;;;5.90;62.46;97105.94;8274830;28;20545;-78
2020/12/09 14:42:26;;;;;;;25.50;22.90;;;;;;;5.82;62.65;97102.84;8273786;28;20213;-77
2020/12/09 14:46:28;;;;;;;22.77;20.53;;;;;;;5.92;62.17;97095.59;8267613;28;20230;-78
2020/12/09 14:50:30;;;;;;;20.00;18.03;;;;;;;5.82;61.83;97093.41;8241271;28;20293;-78
2020/12/09 14:54:32;;;;;;;20.90;18.90;;;;;;;5.79;62.22;97088.41;8241393;28;20647;-77
2020/12/09 14:58:34;;;;;;;19.77;17.87;;;;;;;5.70;62.28;97099.03;8239830;28;20317;-78
2020/12/09 15:02:41;;;;;;;21.13;19.03;;;;;;;5.71;62.33;97094.72;8239867;28;20210;-77
2020/12/09 15:06:44;;;;;;;20.33;18.37;;;;;;;5.64;62.59;97092.38;8240478;28;20234;-78
2020/12/09 15:10:46;;;;;;;20.77;18.77;;;;;;;5.54;62.60;97098.78;8240427;28;20218;-78
2020/12/09 15:14:49;;;;;;;21.00;18.90;;;;;;;5.49;62.66;97091.25;8240149;28;20199;-78
2020/12/09 15:18:51;;;;;;;22.70;20.40;;;;;;;5.33;62.82;97091.88;8239373;28;20732;-78
2020/12/09 15:22:53;;;;;;;21.03;19.00;;;;;;;5.60;62.63;97095.97;8240280;28;20213;-77
2020/12/09 15:26:55;;;;;;;21.17;19.00;;;;;;;5.56;62.41;97089.28;8240172;28;20210;-78
2020/12/09 15:30:57;;;;;;;21.73;19.53;;;;;;;5.46;62.44;97081.09;8239588;28;20210;-78
2020/12/09 15:34:59;;;;;;;21.90;19.70;;;;;;;5.29;63.26;97079.16;8261851;28;20296;-78
2020/12/09 15:39:01;;;;;;;21.40;19.30;;;;;;;5.27;63.34;97078.38;8271124;28;20230;-79
2020/12/09 15:43:03;;;;;;;24.60;22.10;;;;;;;5.22;63.57;97074.31;8271359;28;20282;-78
2020/12/09 15:47:05;;;;;;;22.27;20.17;;;;;;;5.13;63.43;97082.34;8271453;28;20213;-78
2020/12/09 15:51:07;;;;;;;21.13;19.07;;;;;;;5.27;63.45;97087.78;8270851;28;20206;-79
2020/12/09 15:55:11;;;;;;;20.70;18.70;;;;;;;5.31;63.44;97088.53;8271104;28;20661;-79
2020/12/09 15:59:13;;;;;;;20.70;18.67;;;;;;;5.18;62.98;97083.00;8271770;28;20233;-78
2020/12/09 16:03:15;;;;;;;20.87;18.73;;;;;;;5.22;63.57;97093.13;8271066;28;20288;-78
2020/12/09 16:07:16;;;;;;;22.00;19.87;;;;;;;5.03;63.86;97094.69;8271017;28;20272;-78
2020/12/09 16:11:19;;;;;;;21.50;18.73;;;;;;;5.28;63.17;97102.31;8270811;28;20560;-78
2020/12/09 16:15:21;;;;;;;21.73;19.63;;;;;;;5.11;63.06;97092.66;8269894;28;20217;-78
2020/12/09 16:19:23;;;;;;;20.90;18.87;;;;;;;5.39;63.06;97091.66;8271430;28;20685;-78
2020/12/09 16:23:24;;;;;;;23.20;20.80;;;;;;;5.17;63.15;97096.75;8270837;28;20653;-78
2020/12/09 16:27:27;;;;;;;22.70;20.50;;;;;;;5.17;63.31;97102.69;8267703;28;20206;-78
2020/12/09 16:31:33;;;;;;;22.70;20.33;;;;;;;5.12;63.33;97112.28;8238255;28;20222;-78
2020/12/09 16:35:35;;;;;;;22.63;20.40;;;;;;;5.24;63.06;97101.59;8259539;28;20246;-78
2020/12/09 16:39:36;;;;;;;22.00;19.90;;;;;;;5.26;63.54;97093.84;8269109;28;20699;-78
2020/12/09 16:43:40;;;;;;;21.90;19.70;;;;;;;5.38;63.28;97098.50;8269649;28;20316;-78
2020/12/09 16:47:41;;;;;;;23.63;21.33;;;;;;;4.89;64.15;97092.59;8268511;28;20566;-78
2020/12/09 16:51:44;;;;;;;22.47;20.27;;;;;;;5.22;63.33;97102.56;8269727;28;20213;-78
2020/12/09 16:55:46;;;;;;;22.53;20.33;;;;;;;5.26;63.10;97098.97;8269632;28;20696;-78
2020/12/09 16:59:48;;;;;;;22.30;20.17;;;;;;;5.15;63.27;97103.66;8269494;28;20261;-78
2020/12/09 17:03:51;;;;;;;22.87;20.57;;;;;;;5.13;63.21;97110.59;8268668;28;20221;-79
2020/12/09 17:07:52;;;;;;;22.10;19.90;;;;;;;5.25;63.12;97110.97;8269701;28;20574;-78
2020/12/09 17:11:54;;;;;;;21.10;19.03;;;;;;;5.40;63.16;97113.84;8268705;28;20228;-78
2020/12/09 17:15:57;;;;;;;21.30;19.20;;;;;;;5.32;63.14;97114.16;8269786;28;20212;-78
2020/12/09 17:19:58;;;;;;;21.07;18.97;;;;;;;5.27;63.07;97111.75;8270122;28;20237;-79
2020/12/09 17:24:00;;;;;;;23.00;20.70;;;;;;;5.33;62.95;97109.84;8268196;28;20203;-78
2020/12/09 17:28:02;;;;;;;22.40;20.17;;;;;;;5.36;63.04;97108.00;8269211;28;20206;-78
2020/12/09 17:32:06;;;;;;;25.80;23.20;;;;;;;5.32;63.01;97106.44;8267743;28;20561;-78
2020/12/09 17:36:08;;;;;;;23.43;21.13;;;;;;;5.32;63.22;97106.44;8267974;28;20206;-78
2020/12/09 17:40:10;;;;;;;22.73;20.50;;;;;;;5.37;62.95;97114.81;8268238;28;20237;-78
2020/12/09 17:44:12;;;;;;;23.40;21.10;;;;;;;5.37;62.85;97122.53;8267999;28;20212;-78
2020/12/09 17:48:15;;;;;;;23.00;20.80;;;;;;;5.36;63.22;97118.28;8267953;28;20202;-78
2020/12/09 17:52:31;;;;;;;23.60;21.20;;;;;;;5.35;63.12;97115.75;8268432;28;20229;-78
2020/12/09 17:56:33;;;;;;;24.40;21.90;;;;;;;5.36;63.18;97123.41;8266923;28;20198;-78
2020/12/09 18:00:35;;;;;;;23.83;21.40;;;;;;;5.42;63.21;97119.78;8270967;28;20230;-79
2020/12/09 18:04:37;;;;;;;27.47;24.27;;;;;;;5.90;62.97;97118.78;8263610;28;20226;-83
2020/12/09 18:08:40;;;;;;;26.23;23.43;;;;;;;5.83;61.81;97118.19;8264547;28;20236;-82
2020/12/09 18:12:43;;;;;;;23.00;20.60;;;;;;;5.74;62.08;97125.44;8296836;28;20204;-78
2020/12/09 18:16:44;;;;;;;22.70;20.40;;;;;;;5.55;62.65;97135.56;8283997;28;20198;-80
2020/12/09 18:20:48;;;;;;;21.70;19.53;;;;;;;5.53;62.75;97130.47;8316226;28;20240;-80
2020/12/09 18:24:50;;;;;;;21.10;19.03;;;;;;;5.55;62.48;97126.13;8320452;28;20209;-79
2020/12/09 18:28:52;;;;;;;19.30;17.30;;;;;;;5.52;62.52;97127.97;8308863;28;20217;-79
2020/12/09 18:32:54;;;;;;;20.70;18.60;;;;;;;5.50;62.63;97125.44;8286503;28;20224;-79
2020/12/09 18:36:57;;;;;;;19.77;17.87;;;;;;;5.40;62.88;97119.00;8283187;28;20252;-79
2020/12/09 18:40:59;;;;;;;22.80;20.50;;;;;;;5.39;63.02;97127.59;8281336;28;20220;-79
2020/12/09 18:45:01;;;;;;;24.83;22.23;;;;;;;5.43;62.91;97131.72;8295689;28;20602;-80
2020/12/09 18:49:03;;;;;;;33.60;28.03;;;;;;;5.34;63.08;97122.63;8301851;28;20571;-79